sensor_id;sensor_type;location;lat;lon;timestamp;P1;durP1;ratioP1;P2;durP2;ratioP2
75038;SDS011;63609;49.992;14.512;2023-06-14T00:03:30;8.38;;;5.63;;
75038;SDS011;63609;49.992;14.512;2023-06-14T00:05:58;7.88;;;5.15;;
75038;SDS011;63609;49.992;14.512;2023-06-14T00:08:25;6.80;;;4.72;;
75038;SDS011;63609;49.992;14.512;2023-06-14T00:10:53;7.45;;;4.50;;
75038;SDS011;63609;49.992;14.512;2023-06-14T00:13:20;6.10;;;4.20;;
75038;SDS011;63609;49.992;14.512;2023-06-14T00:15:47;7.43;;;4.68;;
75038;SDS011;63609;49.992;14.512;2023-06-14T00:18:14;7.60;;;5.00;;
75038;SDS011;63609;49.992;14.512;2023-06-14T00:20:41;6.60;;;4.18;;
75038;SDS011;63609;49.992;14.512;2023-06-14T00:23:09;8.27;;;4.72;;
75038;SDS011;63609;49.992;14.512;2023-06-14T00:25:36;5.50;;;4.45;;
75038;SDS011;63609;49.992;14.512;2023-06-14T00:28:03;6.90;;;4.40;;
75038;SDS011;63609;49.992;14.512;2023-06-14T00:30:30;5.82;;;4.45;;
75038;SDS011;63609;49.992;14.512;2023-06-14T00:32:57;7.05;;;4.45;;
75038;SDS011;63609;49.992;14.512;2023-06-14T00:35:25;7.70;;;4.68;;
75038;SDS011;63609;49.992;14.512;2023-06-14T00:37:52;6.53;;;4.15;;
75038;SDS011;63609;49.992;14.512;2023-06-14T00:40:21;6.82;;;4.40;;
75038;SDS011;63609;49.992;14.512;2023-06-14T00:42:48;6.13;;;3.92;;
75038;SDS011;63609;49.992;14.512;2023-06-14T00:45:15;6.50;;;4.25;;
75038;SDS011;63609;49.992;14.512;2023-06-14T00:47:42;7.80;;;4.82;;
75038;SDS011;63609;49.992;14.512;2023-06-14T00:50:12;7.05;;;4.70;;
75038;SDS011;63609;49.992;14.512;2023-06-14T00:52:39;6.40;;;4.07;;
75038;SDS011;63609;49.992;14.512;2023-06-14T00:55:07;7.60;;;4.65;;
75038;SDS011;63609;49.992;14.512;2023-06-14T00:57:37;6.28;;;4.28;;
75038;SDS011;63609;49.992;14.512;2023-06-14T01:00:07;6.25;;;4.57;;
75038;SDS011;63609;49.992;14.512;2023-06-14T01:02:36;6.88;;;4.05;;
75038;SDS011;63609;49.992;14.512;2023-06-14T01:05:07;7.25;;;4.43;;
75038;SDS011;63609;49.992;14.512;2023-06-14T01:10:15;6.63;;;3.83;;
75038;SDS011;63609;49.992;14.512;2023-06-14T01:13:04;5.28;;;3.58;;
75038;SDS011;63609;49.992;14.512;2023-06-14T01:15:35;6.53;;;4.00;;
75038;SDS011;63609;49.992;14.512;2023-06-14T01:18:07;5.05;;;3.67;;
75038;SDS011;63609;49.992;14.512;2023-06-14T01:20:35;5.22;;;3.45;;
75038;SDS011;63609;49.992;14.512;2023-06-14T01:23:04;6.40;;;3.63;;
75038;SDS011;63609;49.992;14.512;2023-06-14T01:25:31;6.88;;;4.40;;
75038;SDS011;63609;49.992;14.512;2023-06-14T01:28:00;5.72;;;3.88;;
75038;SDS011;63609;49.992;14.512;2023-06-14T01:30:32;6.35;;;3.90;;
75038;SDS011;63609;49.992;14.512;2023-06-14T01:33:01;7.43;;;4.07;;
75038;SDS011;63609;49.992;14.512;2023-06-14T01:35:30;5.80;;;3.85;;
75038;SDS011;63609;49.992;14.512;2023-06-14T01:37:58;6.30;;;3.78;;
75038;SDS011;63609;49.992;14.512;2023-06-14T01:40:28;6.10;;;3.97;;
75038;SDS011;63609;49.992;14.512;2023-06-14T01:42:57;6.90;;;3.85;;
75038;SDS011;63609;49.992;14.512;2023-06-14T01:45:27;6.63;;;4.25;;
75038;SDS011;63609;49.992;14.512;2023-06-14T01:47:56;6.35;;;4.20;;
75038;SDS011;63609;49.992;14.512;2023-06-14T01:50:23;8.60;;;4.68;;
75038;SDS011;63609;49.992;14.512;2023-06-14T01:52:56;8.02;;;4.75;;
75038;SDS011;63609;49.992;14.512;2023-06-14T01:55:23;8.32;;;4.82;;
75038;SDS011;63609;49.992;14.512;2023-06-14T01:57:53;7.20;;;4.88;;
75038;SDS011;63609;49.992;14.512;2023-06-14T02:00:20;9.13;;;5.68;;
75038;SDS011;63609;49.992;14.512;2023-06-14T02:02:51;7.57;;;4.57;;
75038;SDS011;63609;49.992;14.512;2023-06-14T02:05:18;7.43;;;4.43;;
75038;SDS011;63609;49.992;14.512;2023-06-14T02:07:47;7.18;;;4.70;;
75038;SDS011;63609;49.992;14.512;2023-06-14T02:10:17;6.10;;;3.80;;
75038;SDS011;63609;49.992;14.512;2023-06-14T02:12:44;6.40;;;4.10;;
75038;SDS011;63609;49.992;14.512;2023-06-14T02:15:11;6.75;;;4.95;;
75038;SDS011;63609;49.992;14.512;2023-06-14T02:17:44;5.65;;;4.30;;
75038;SDS011;63609;49.992;14.512;2023-06-14T02:20:13;6.55;;;4.22;;
75038;SDS011;63609;49.992;14.512;2023-06-14T02:22:41;7.70;;;4.70;;
75038;SDS011;63609;49.992;14.512;2023-06-14T02:25:08;6.80;;;4.57;;
75038;SDS011;63609;49.992;14.512;2023-06-14T02:27:35;8.88;;;5.43;;
75038;SDS011;63609;49.992;14.512;2023-06-14T02:30:03;8.63;;;5.03;;
75038;SDS011;63609;49.992;14.512;2023-06-14T02:32:33;7.18;;;4.65;;
75038;SDS011;63609;49.992;14.512;2023-06-14T02:35:04;7.68;;;4.60;;
75038;SDS011;63609;49.992;14.512;2023-06-14T02:37:31;7.45;;;5.10;;
75038;SDS011;63609;49.992;14.512;2023-06-14T02:39:59;7.18;;;4.38;;
75038;SDS011;63609;49.992;14.512;2023-06-14T02:42:26;6.95;;;4.55;;
75038;SDS011;63609;49.992;14.512;2023-06-14T02:44:53;7.55;;;4.97;;
75038;SDS011;63609;49.992;14.512;2023-06-14T02:47:20;7.05;;;4.25;;
75038;SDS011;63609;49.992;14.512;2023-06-14T02:49:47;6.20;;;4.15;;
75038;SDS011;63609;49.992;14.512;2023-06-14T02:52:14;5.45;;;4.03;;
75038;SDS011;63609;49.992;14.512;2023-06-14T02:54:42;7.05;;;4.80;;
75038;SDS011;63609;49.992;14.512;2023-06-14T02:57:09;6.65;;;4.57;;
75038;SDS011;63609;49.992;14.512;2023-06-14T02:59:39;9.70;;;5.50;;
75038;SDS011;63609;49.992;14.512;2023-06-14T03:02:05;9.48;;;5.60;;
75038;SDS011;63609;49.992;14.512;2023-06-14T03:04:33;10.57;;;6.20;;
75038;SDS011;63609;49.992;14.512;2023-06-14T03:07:11;12.30;;;6.35;;
75038;SDS011;63609;49.992;14.512;2023-06-14T03:09:41;8.85;;;6.05;;
75038;SDS011;63609;49.992;14.512;2023-06-14T03:12:11;8.55;;;5.38;;
75038;SDS011;63609;49.992;14.512;2023-06-14T03:14:38;14.80;;;6.30;;
75038;SDS011;63609;49.992;14.512;2023-06-14T03:17:07;14.35;;;6.70;;
75038;SDS011;63609;49.992;14.512;2023-06-14T03:19:38;10.70;;;7.13;;
75038;SDS011;63609;49.992;14.512;2023-06-14T03:22:05;12.63;;;6.82;;
75038;SDS011;63609;49.992;14.512;2023-06-14T03:24:36;12.27;;;7.68;;
75038;SDS011;63609;49.992;14.512;2023-06-14T03:27:09;12.98;;;7.60;;
75038;SDS011;63609;49.992;14.512;2023-06-14T03:29:40;12.55;;;7.20;;
75038;SDS011;63609;49.992;14.512;2023-06-14T03:32:08;11.50;;;7.22;;
75038;SDS011;63609;49.992;14.512;2023-06-14T03:34:38;10.23;;;6.60;;
75038;SDS011;63609;49.992;14.512;2023-06-14T03:37:07;12.93;;;7.07;;
75038;SDS011;63609;49.992;14.512;2023-06-14T03:39:34;11.15;;;7.22;;
75038;SDS011;63609;49.992;14.512;2023-06-14T03:42:02;11.07;;;5.85;;
75038;SDS011;63609;49.992;14.512;2023-06-14T03:44:30;9.60;;;5.60;;
75038;SDS011;63609;49.992;14.512;2023-06-14T03:46:59;9.38;;;5.40;;
75038;SDS011;63609;49.992;14.512;2023-06-14T03:49:27;9.05;;;5.25;;
75038;SDS011;63609;49.992;14.512;2023-06-14T03:51:54;9.48;;;5.13;;
75038;SDS011;63609;49.992;14.512;2023-06-14T03:54:23;8.70;;;5.22;;
75038;SDS011;63609;49.992;14.512;2023-06-14T03:56:54;8.77;;;5.45;;
75038;SDS011;63609;49.992;14.512;2023-06-14T03:59:21;7.18;;;4.93;;
75038;SDS011;63609;49.992;14.512;2023-06-14T04:01:48;8.05;;;5.13;;
75038;SDS011;63609;49.992;14.512;2023-06-14T04:04:16;7.93;;;4.95;;
75038;SDS011;63609;49.992;14.512;2023-06-14T04:06:43;8.73;;;5.13;;
75038;SDS011;63609;49.992;14.512;2023-06-14T04:09:10;8.15;;;5.07;;
75038;SDS011;63609;49.992;14.512;2023-06-14T04:11:37;8.18;;;4.93;;
75038;SDS011;63609;49.992;14.512;2023-06-14T04:14:05;7.57;;;4.93;;
75038;SDS011;63609;49.992;14.512;2023-06-14T04:16:32;8.00;;;5.60;;
75038;SDS011;63609;49.992;14.512;2023-06-14T04:19:00;8.98;;;5.53;;
75038;SDS011;63609;49.992;14.512;2023-06-14T04:21:29;9.02;;;5.55;;
75038;SDS011;63609;49.992;14.512;2023-06-14T04:23:58;8.68;;;5.40;;
75038;SDS011;63609;49.992;14.512;2023-06-14T04:26:30;8.77;;;6.00;;
75038;SDS011;63609;49.992;14.512;2023-06-14T04:29:00;9.85;;;5.63;;
75038;SDS011;63609;49.992;14.512;2023-06-14T04:31:32;10.50;;;6.65;;
75038;SDS011;63609;49.992;14.512;2023-06-14T04:34:07;9.70;;;5.97;;
75038;SDS011;63609;49.992;14.512;2023-06-14T04:36:35;9.93;;;5.95;;
75038;SDS011;63609;49.992;14.512;2023-06-14T04:39:05;10.48;;;6.20;;
75038;SDS011;63609;49.992;14.512;2023-06-14T04:41:33;9.57;;;6.43;;
75038;SDS011;63609;49.992;14.512;2023-06-14T04:44:02;11.13;;;6.63;;
75038;SDS011;63609;49.992;14.512;2023-06-14T04:46:34;12.38;;;6.53;;
75038;SDS011;63609;49.992;14.512;2023-06-14T04:49:17;10.10;;;6.85;;
75038;SDS011;63609;49.992;14.512;2023-06-14T04:51:45;8.77;;;6.28;;
75038;SDS011;63609;49.992;14.512;2023-06-14T04:54:13;10.40;;;6.97;;
75038;SDS011;63609;49.992;14.512;2023-06-14T04:56:42;9.90;;;6.47;;
75038;SDS011;63609;49.992;14.512;2023-06-14T04:59:10;9.82;;;5.97;;
75038;SDS011;63609;49.992;14.512;2023-06-14T05:01:41;10.10;;;6.13;;
75038;SDS011;63609;49.992;14.512;2023-06-14T05:04:08;10.27;;;6.35;;
75038;SDS011;63609;49.992;14.512;2023-06-14T05:06:36;8.70;;;6.28;;
75038;SDS011;63609;49.992;14.512;2023-06-14T05:09:03;9.88;;;6.38;;
75038;SDS011;63609;49.992;14.512;2023-06-14T05:11:30;11.40;;;6.10;;
75038;SDS011;63609;49.992;14.512;2023-06-14T05:13:58;11.60;;;7.18;;
75038;SDS011;63609;49.992;14.512;2023-06-14T05:16:25;11.60;;;6.78;;
75038;SDS011;63609;49.992;14.512;2023-06-14T05:18:54;9.43;;;5.95;;
75038;SDS011;63609;49.992;14.512;2023-06-14T05:21:21;9.05;;;6.03;;
75038;SDS011;63609;49.992;14.512;2023-06-14T05:23:52;11.45;;;6.65;;
75038;SDS011;63609;49.992;14.512;2023-06-14T05:26:23;11.68;;;6.35;;
75038;SDS011;63609;49.992;14.512;2023-06-14T05:28:58;10.25;;;6.13;;
75038;SDS011;63609;49.992;14.512;2023-06-14T05:31:27;8.80;;;5.97;;
75038;SDS011;63609;49.992;14.512;2023-06-14T05:33:54;10.93;;;6.80;;
75038;SDS011;63609;49.992;14.512;2023-06-14T05:36:21;12.82;;;6.47;;
75038;SDS011;63609;49.992;14.512;2023-06-14T05:38:49;9.45;;;6.10;;
75038;SDS011;63609;49.992;14.512;2023-06-14T05:41:17;9.82;;;6.28;;
75038;SDS011;63609;49.992;14.512;2023-06-14T05:43:44;10.18;;;6.50;;
75038;SDS011;63609;49.992;14.512;2023-06-14T05:46:11;11.45;;;6.72;;
75038;SDS011;63609;49.992;14.512;2023-06-14T05:48:38;7.88;;;5.70;;
75038;SDS011;63609;49.992;14.512;2023-06-14T05:51:05;11.43;;;6.55;;
75038;SDS011;63609;49.992;14.512;2023-06-14T05:53:35;10.70;;;6.20;;
75038;SDS011;63609;49.992;14.512;2023-06-14T05:56:02;10.02;;;6.55;;
75038;SDS011;63609;49.992;14.512;2023-06-14T05:58:29;8.90;;;6.22;;
75038;SDS011;63609;49.992;14.512;2023-06-14T06:00:56;10.40;;;6.47;;
75038;SDS011;63609;49.992;14.512;2023-06-14T06:03:23;10.85;;;6.15;;
75038;SDS011;63609;49.992;14.512;2023-06-14T06:05:50;11.18;;;6.40;;
75038;SDS011;63609;49.992;14.512;2023-06-14T06:08:17;10.77;;;6.25;;
75038;SDS011;63609;49.992;14.512;2023-06-14T06:10:45;10.10;;;5.97;;
75038;SDS011;63609;49.992;14.512;2023-06-14T06:13:12;11.30;;;6.57;;
75038;SDS011;63609;49.992;14.512;2023-06-14T06:15:38;10.70;;;5.85;;
75038;SDS011;63609;49.992;14.512;2023-06-14T06:18:06;12.00;;;6.13;;
75038;SDS011;63609;49.992;14.512;2023-06-14T06:20:33;10.75;;;6.45;;
75038;SDS011;63609;49.992;14.512;2023-06-14T06:23:00;8.15;;;5.85;;
75038;SDS011;63609;49.992;14.512;2023-06-14T06:25:27;9.82;;;6.10;;
75038;SDS011;63609;49.992;14.512;2023-06-14T06:27:55;10.05;;;6.35;;
75038;SDS011;63609;49.992;14.512;2023-06-14T06:30:25;8.73;;;5.95;;
75038;SDS011;63609;49.992;14.512;2023-06-14T06:32:53;10.02;;;6.15;;
75038;SDS011;63609;49.992;14.512;2023-06-14T06:35:22;7.43;;;5.57;;
75038;SDS011;63609;49.992;14.512;2023-06-14T06:37:49;8.45;;;6.05;;
75038;SDS011;63609;49.992;14.512;2023-06-14T06:40:16;12.05;;;5.90;;
75038;SDS011;63609;49.992;14.512;2023-06-14T06:42:43;10.60;;;6.10;;
75038;SDS011;63609;49.992;14.512;2023-06-14T06:45:12;9.10;;;5.70;;
75038;SDS011;63609;49.992;14.512;2023-06-14T06:47:40;7.57;;;5.10;;
75038;SDS011;63609;49.992;14.512;2023-06-14T06:50:07;7.57;;;6.20;;
75038;SDS011;63609;49.992;14.512;2023-06-14T06:52:34;7.47;;;5.50;;
75038;SDS011;63609;49.992;14.512;2023-06-14T06:55:01;7.25;;;5.30;;
75038;SDS011;63609;49.992;14.512;2023-06-14T06:57:28;9.52;;;5.07;;
75038;SDS011;63609;49.992;14.512;2023-06-14T06:59:56;7.18;;;4.70;;
75038;SDS011;63609;49.992;14.512;2023-06-14T07:02:24;7.78;;;4.63;;
75038;SDS011;63609;49.992;14.512;2023-06-14T07:04:51;9.45;;;5.22;;
75038;SDS011;63609;49.992;14.512;2023-06-14T07:07:18;7.25;;;5.00;;
75038;SDS011;63609;49.992;14.512;2023-06-14T07:09:45;7.13;;;5.10;;
75038;SDS011;63609;49.992;14.512;2023-06-14T07:12:12;8.90;;;5.88;;
75038;SDS011;63609;49.992;14.512;2023-06-14T07:14:39;7.70;;;5.13;;
75038;SDS011;63609;49.992;14.512;2023-06-14T07:17:07;7.97;;;5.60;;
75038;SDS011;63609;49.992;14.512;2023-06-14T07:19:36;9.10;;;5.47;;
75038;SDS011;63609;49.992;14.512;2023-06-14T07:22:04;10.50;;;5.78;;
75038;SDS011;63609;49.992;14.512;2023-06-14T07:24:33;11.95;;;5.55;;
75038;SDS011;63609;49.992;14.512;2023-06-14T07:27:01;7.57;;;4.93;;
75038;SDS011;63609;49.992;14.512;2023-06-14T07:29:29;7.95;;;5.15;;
75038;SDS011;63609;49.992;14.512;2023-06-14T07:31:56;8.52;;;5.28;;
75038;SDS011;63609;49.992;14.512;2023-06-14T07:34:23;8.88;;;5.03;;
75038;SDS011;63609;49.992;14.512;2023-06-14T07:36:50;8.00;;;4.50;;
75038;SDS011;63609;49.992;14.512;2023-06-14T07:39:17;9.60;;;4.50;;
75038;SDS011;63609;49.992;14.512;2023-06-14T07:42:01;7.10;;;4.25;;
75038;SDS011;63609;49.992;14.512;2023-06-14T07:44:29;6.90;;;4.28;;
75038;SDS011;63609;49.992;14.512;2023-06-14T07:46:57;6.53;;;4.25;;
75038;SDS011;63609;49.992;14.512;2023-06-14T07:49:27;6.47;;;4.00;;
75038;SDS011;63609;49.992;14.512;2023-06-14T07:51:54;6.70;;;4.22;;
75038;SDS011;63609;49.992;14.512;2023-06-14T07:54:21;6.95;;;4.20;;
75038;SDS011;63609;49.992;14.512;2023-06-14T07:56:52;5.32;;;3.78;;
75038;SDS011;63609;49.992;14.512;2023-06-14T07:59:19;7.15;;;3.60;;
75038;SDS011;63609;49.992;14.512;2023-06-14T08:01:46;8.82;;;4.63;;
75038;SDS011;63609;49.992;14.512;2023-06-14T08:04:14;6.32;;;3.42;;
75038;SDS011;63609;49.992;14.512;2023-06-14T08:06:41;5.03;;;3.30;;
75038;SDS011;63609;49.992;14.512;2023-06-14T08:09:12;6.20;;;3.60;;
75038;SDS011;63609;49.992;14.512;2023-06-14T08:11:40;8.98;;;3.17;;
75038;SDS011;63609;49.992;14.512;2023-06-14T08:14:07;6.13;;;3.42;;
75038;SDS011;63609;49.992;14.512;2023-06-14T08:16:35;5.00;;;3.08;;
75038;SDS011;63609;49.992;14.512;2023-06-14T08:19:02;5.90;;;2.95;;
75038;SDS011;63609;49.992;14.512;2023-06-14T08:21:29;6.50;;;3.40;;
75038;SDS011;63609;49.992;14.512;2023-06-14T08:23:57;5.43;;;3.20;;
75038;SDS011;63609;49.992;14.512;2023-06-14T08:26:25;5.13;;;3.15;;
75038;SDS011;63609;49.992;14.512;2023-06-14T08:28:55;7.75;;;3.38;;
75038;SDS011;63609;49.992;14.512;2023-06-14T08:31:23;4.70;;;3.25;;
75038;SDS011;63609;49.992;14.512;2023-06-14T08:33:51;4.60;;;3.30;;
75038;SDS011;63609;49.992;14.512;2023-06-14T08:36:18;5.43;;;3.50;;
75038;SDS011;63609;49.992;14.512;2023-06-14T08:38:45;7.00;;;3.20;;
75038;SDS011;63609;49.992;14.512;2023-06-14T08:41:12;4.85;;;3.25;;
75038;SDS011;63609;49.992;14.512;2023-06-14T08:43:48;5.82;;;3.08;;
75038;SDS011;63609;49.992;14.512;2023-06-14T08:46:17;4.70;;;3.00;;
75038;SDS011;63609;49.992;14.512;2023-06-14T08:48:49;4.70;;;3.15;;
75038;SDS011;63609;49.992;14.512;2023-06-14T08:51:20;5.63;;;3.50;;
75038;SDS011;63609;49.992;14.512;2023-06-14T08:53:58;5.22;;;3.40;;
75038;SDS011;63609;49.992;14.512;2023-06-14T08:56:29;4.72;;;3.05;;
75038;SDS011;63609;49.992;14.512;2023-06-14T08:58:57;5.28;;;3.45;;
75038;SDS011;63609;49.992;14.512;2023-06-14T09:01:36;9.45;;;3.70;;
75038;SDS011;63609;49.992;14.512;2023-06-14T09:04:04;9.07;;;4.70;;
75038;SDS011;63609;49.992;14.512;2023-06-14T09:06:34;5.97;;;3.13;;
75038;SDS011;63609;49.992;14.512;2023-06-14T09:09:03;6.90;;;3.58;;
75038;SDS011;63609;49.992;14.512;2023-06-14T09:11:31;7.40;;;3.60;;
75038;SDS011;63609;49.992;14.512;2023-06-14T09:13:58;5.95;;;3.42;;
75038;SDS011;63609;49.992;14.512;2023-06-14T09:16:25;6.68;;;4.05;;
75038;SDS011;63609;49.992;14.512;2023-06-14T09:18:53;4.55;;;2.97;;
75038;SDS011;63609;49.992;14.512;2023-06-14T09:21:20;4.75;;;3.40;;
75038;SDS011;63609;49.992;14.512;2023-06-14T09:23:48;7.72;;;3.05;;
75038;SDS011;63609;49.992;14.512;2023-06-14T09:26:16;6.38;;;3.40;;
75038;SDS011;63609;49.992;14.512;2023-06-14T09:28:49;6.43;;;3.90;;
75038;SDS011;63609;49.992;14.512;2023-06-14T09:31:18;7.25;;;3.92;;
75038;SDS011;63609;49.992;14.512;2023-06-14T09:33:49;5.55;;;3.92;;
75038;SDS011;63609;49.992;14.512;2023-06-14T09:38:52;7.13;;;3.80;;
75038;SDS011;63609;49.992;14.512;2023-06-14T09:41:36;5.47;;;3.88;;
75038;SDS011;63609;49.992;14.512;2023-06-14T09:44:09;6.68;;;3.40;;
75038;SDS011;63609;49.992;14.512;2023-06-14T09:46:46;7.53;;;3.53;;
75038;SDS011;63609;49.992;14.512;2023-06-14T09:49:14;6.28;;;4.25;;
75038;SDS011;63609;49.992;14.512;2023-06-14T09:51:43;5.05;;;3.70;;
75038;SDS011;63609;49.992;14.512;2023-06-14T09:54:14;6.93;;;3.78;;
75038;SDS011;63609;49.992;14.512;2023-06-14T09:56:47;5.10;;;3.58;;
75038;SDS011;63609;49.992;14.512;2023-06-14T09:59:16;5.55;;;3.80;;
75038;SDS011;63609;49.992;14.512;2023-06-14T10:01:48;5.82;;;4.18;;
75038;SDS011;63609;49.992;14.512;2023-06-14T10:04:16;6.45;;;4.03;;
75038;SDS011;63609;49.992;14.512;2023-06-14T10:06:48;6.53;;;4.28;;
75038;SDS011;63609;49.992;14.512;2023-06-14T10:09:17;6.60;;;3.50;;
75038;SDS011;63609;49.992;14.512;2023-06-14T10:11:44;5.95;;;3.63;;
75038;SDS011;63609;49.992;14.512;2023-06-14T10:14:12;5.47;;;3.63;;
75038;SDS011;63609;49.992;14.512;2023-06-14T10:16:49;6.13;;;3.55;;
75038;SDS011;63609;49.992;14.512;2023-06-14T10:22:22;5.65;;;3.45;;
75038;SDS011;63609;49.992;14.512;2023-06-14T10:24:56;5.38;;;3.50;;
75038;SDS011;63609;49.992;14.512;2023-06-14T10:27:23;7.85;;;3.70;;
75038;SDS011;63609;49.992;14.512;2023-06-14T10:32:24;5.50;;;3.45;;
75038;SDS011;63609;49.992;14.512;2023-06-14T10:34:53;5.25;;;3.17;;
75038;SDS011;63609;49.992;14.512;2023-06-14T10:39:55;5.28;;;3.13;;
75038;SDS011;63609;49.992;14.512;2023-06-14T10:42:23;5.47;;;3.13;;
75038;SDS011;63609;49.992;14.512;2023-06-14T10:44:55;4.95;;;3.10;;
75038;SDS011;63609;49.992;14.512;2023-06-14T10:49:56;5.82;;;3.28;;
75038;SDS011;63609;49.992;14.512;2023-06-14T10:52:31;6.43;;;3.30;;
75038;SDS011;63609;49.992;14.512;2023-06-14T10:57:33;4.25;;;3.05;;
75038;SDS011;63609;49.992;14.512;2023-06-14T11:00:17;6.03;;;3.05;;
75038;SDS011;63609;49.992;14.512;2023-06-14T11:11:07;5.15;;;3.20;;
75038;SDS011;63609;49.992;14.512;2023-06-14T11:13:42;4.68;;;3.30;;
75038;SDS011;63609;49.992;14.512;2023-06-14T11:16:13;4.45;;;2.75;;
75038;SDS011;63609;49.992;14.512;2023-06-14T11:18:42;6.65;;;2.80;;
75038;SDS011;63609;49.992;14.512;2023-06-14T11:21:10;5.88;;;3.13;;
75038;SDS011;63609;49.992;14.512;2023-06-14T11:23:37;5.80;;;2.95;;
75038;SDS011;63609;49.992;14.512;2023-06-14T11:26:04;4.75;;;2.92;;
75038;SDS011;63609;49.992;14.512;2023-06-14T11:28:39;4.13;;;2.88;;
75038;SDS011;63609;49.992;14.512;2023-06-14T11:31:09;4.75;;;3.30;;
75038;SDS011;63609;49.992;14.512;2023-06-14T11:33:39;4.85;;;2.65;;
75038;SDS011;63609;49.992;14.512;2023-06-14T11:36:06;3.97;;;2.33;;
75038;SDS011;63609;49.992;14.512;2023-06-14T11:38:35;5.20;;;3.00;;
75038;SDS011;63609;49.992;14.512;2023-06-14T11:41:04;4.57;;;2.40;;
75038;SDS011;63609;49.992;14.512;2023-06-14T11:43:31;8.00;;;2.80;;
75038;SDS011;63609;49.992;14.512;2023-06-14T11:46:00;5.68;;;2.70;;
75038;SDS011;63609;49.992;14.512;2023-06-14T11:48:38;4.72;;;2.92;;
75038;SDS011;63609;49.992;14.512;2023-06-14T11:51:06;6.85;;;3.00;;
75038;SDS011;63609;49.992;14.512;2023-06-14T11:53:33;4.55;;;2.90;;
75038;SDS011;63609;49.992;14.512;2023-06-14T11:56:01;4.65;;;2.80;;
75038;SDS011;63609;49.992;14.512;2023-06-14T11:58:29;5.35;;;3.17;;
75038;SDS011;63609;49.992;14.512;2023-06-14T12:00:57;5.47;;;3.05;;
75038;SDS011;63609;49.992;14.512;2023-06-14T12:03:25;5.53;;;2.90;;
75038;SDS011;63609;49.992;14.512;2023-06-14T12:06:02;4.53;;;2.80;;
75038;SDS011;63609;49.992;14.512;2023-06-14T12:08:34;3.50;;;2.53;;
75038;SDS011;63609;49.992;14.512;2023-06-14T12:11:07;5.45;;;2.78;;
75038;SDS011;63609;49.992;14.512;2023-06-14T12:13:38;5.45;;;3.10;;
75038;SDS011;63609;49.992;14.512;2023-06-14T12:16:09;7.28;;;3.00;;
75038;SDS011;63609;49.992;14.512;2023-06-14T12:18:38;4.35;;;2.70;;
75038;SDS011;63609;49.992;14.512;2023-06-14T12:21:06;4.05;;;2.60;;
75038;SDS011;63609;49.992;14.512;2023-06-14T12:26:12;3.45;;;2.70;;
75038;SDS011;63609;49.992;14.512;2023-06-14T12:28:43;4.75;;;2.83;;
75038;SDS011;63609;49.992;14.512;2023-06-14T12:31:12;5.55;;;3.15;;
75038;SDS011;63609;49.992;14.512;2023-06-14T12:33:40;4.38;;;2.80;;
75038;SDS011;63609;49.992;14.512;2023-06-14T12:36:08;4.05;;;2.72;;
75038;SDS011;63609;49.992;14.512;2023-06-14T12:38:38;3.95;;;2.78;;
75038;SDS011;63609;49.992;14.512;2023-06-14T12:41:05;4.50;;;2.60;;
75038;SDS011;63609;49.992;14.512;2023-06-14T12:43:32;4.00;;;2.72;;
75038;SDS011;63609;49.992;14.512;2023-06-14T12:46:00;4.55;;;2.53;;
75038;SDS011;63609;49.992;14.512;2023-06-14T12:48:27;3.20;;;2.45;;
75038;SDS011;63609;49.992;14.512;2023-06-14T12:50:57;5.25;;;2.78;;
75038;SDS011;63609;49.992;14.512;2023-06-14T12:53:24;5.50;;;2.83;;
75038;SDS011;63609;49.992;14.512;2023-06-14T12:55:51;3.97;;;2.65;;
75038;SDS011;63609;49.992;14.512;2023-06-14T12:58:18;8.05;;;3.20;;
75038;SDS011;63609;49.992;14.512;2023-06-14T13:00:47;4.78;;;2.60;;
75038;SDS011;63609;49.992;14.512;2023-06-14T13:03:14;4.35;;;2.90;;
75038;SDS011;63609;49.992;14.512;2023-06-14T13:05:41;3.92;;;2.90;;
75038;SDS011;63609;49.992;14.512;2023-06-14T13:08:09;4.38;;;2.97;;
75038;SDS011;63609;49.992;14.512;2023-06-14T13:10:37;4.32;;;2.80;;
75038;SDS011;63609;49.992;14.512;2023-06-14T13:13:03;7.78;;;3.15;;
75038;SDS011;63609;49.992;14.512;2023-06-14T13:15:30;6.50;;;3.33;;
75038;SDS011;63609;49.992;14.512;2023-06-14T13:17:58;4.25;;;2.70;;
75038;SDS011;63609;49.992;14.512;2023-06-14T13:20:25;3.83;;;2.70;;
75038;SDS011;63609;49.992;14.512;2023-06-14T13:22:52;7.07;;;2.88;;
75038;SDS011;63609;49.992;14.512;2023-06-14T13:25:19;5.70;;;3.05;;
75038;SDS011;63609;49.992;14.512;2023-06-14T13:27:46;6.32;;;3.63;;
75038;SDS011;63609;49.992;14.512;2023-06-14T13:30:13;4.15;;;3.17;;
75038;SDS011;63609;49.992;14.512;2023-06-14T13:32:41;4.28;;;2.92;;
75038;SDS011;63609;49.992;14.512;2023-06-14T13:35:09;6.05;;;3.10;;
75038;SDS011;63609;49.992;14.512;2023-06-14T13:37:37;5.03;;;2.45;;
75038;SDS011;63609;49.992;14.512;2023-06-14T13:40:04;4.97;;;2.90;;
75038;SDS011;63609;49.992;14.512;2023-06-14T13:42:32;5.22;;;2.92;;
75038;SDS011;63609;49.992;14.512;2023-06-14T13:44:59;6.60;;;2.45;;
75038;SDS011;63609;49.992;14.512;2023-06-14T13:47:26;5.07;;;2.75;;
75038;SDS011;63609;49.992;14.512;2023-06-14T13:49:53;4.88;;;2.67;;
75038;SDS011;63609;49.992;14.512;2023-06-14T13:52:20;6.28;;;2.85;;
75038;SDS011;63609;49.992;14.512;2023-06-14T13:54:47;4.07;;;2.80;;
75038;SDS011;63609;49.992;14.512;2023-06-14T13:57:15;7.13;;;2.92;;
75038;SDS011;63609;49.992;14.512;2023-06-14T13:59:43;5.82;;;2.60;;
75038;SDS011;63609;49.992;14.512;2023-06-14T14:02:11;4.20;;;2.63;;
75038;SDS011;63609;49.992;14.512;2023-06-14T14:04:40;4.68;;;2.67;;
75038;SDS011;63609;49.992;14.512;2023-06-14T14:07:07;4.63;;;2.67;;
75038;SDS011;63609;49.992;14.512;2023-06-14T14:09:34;5.53;;;2.83;;
75038;SDS011;63609;49.992;14.512;2023-06-14T14:12:02;4.68;;;2.90;;
75038;SDS011;63609;49.992;14.512;2023-06-14T14:14:30;3.95;;;2.80;;
75038;SDS011;63609;49.992;14.512;2023-06-14T14:16:59;4.93;;;2.60;;
75038;SDS011;63609;49.992;14.512;2023-06-14T14:19:26;4.50;;;2.88;;
75038;SDS011;63609;49.992;14.512;2023-06-14T14:21:53;6.70;;;2.83;;
75038;SDS011;63609;49.992;14.512;2023-06-14T14:24:20;5.32;;;2.70;;
75038;SDS011;63609;49.992;14.512;2023-06-14T14:26:47;4.55;;;2.40;;
75038;SDS011;63609;49.992;14.512;2023-06-14T14:29:16;6.93;;;2.47;;
75038;SDS011;63609;49.992;14.512;2023-06-14T14:31:43;5.38;;;2.55;;
75038;SDS011;63609;49.992;14.512;2023-06-14T14:34:11;4.65;;;2.80;;
75038;SDS011;63609;49.992;14.512;2023-06-14T14:36:39;6.93;;;2.50;;
75038;SDS011;63609;49.992;14.512;2023-06-14T14:39:09;4.28;;;2.45;;
75038;SDS011;63609;49.992;14.512;2023-06-14T14:41:38;4.35;;;2.80;;
75038;SDS011;63609;49.992;14.512;2023-06-14T14:44:08;8.00;;;3.15;;
75038;SDS011;63609;49.992;14.512;2023-06-14T14:46:35;6.00;;;2.30;;
75038;SDS011;63609;49.992;14.512;2023-06-14T14:49:02;5.00;;;2.53;;
75038;SDS011;63609;49.992;14.512;2023-06-14T14:51:29;4.28;;;2.80;;
75038;SDS011;63609;49.992;14.512;2023-06-14T14:53:56;5.35;;;3.08;;
75038;SDS011;63609;49.992;14.512;2023-06-14T14:56:23;4.35;;;2.63;;
75038;SDS011;63609;49.992;14.512;2023-06-14T14:58:50;3.63;;;2.40;;
75038;SDS011;63609;49.992;14.512;2023-06-14T15:01:17;5.18;;;2.60;;
75038;SDS011;63609;49.992;14.512;2023-06-14T15:03:44;4.10;;;2.60;;
75038;SDS011;63609;49.992;14.512;2023-06-14T15:06:15;5.75;;;3.10;;
75038;SDS011;63609;49.992;14.512;2023-06-14T15:08:44;4.53;;;2.53;;
75038;SDS011;63609;49.992;14.512;2023-06-14T15:11:11;4.20;;;2.50;;
75038;SDS011;63609;49.992;14.512;2023-06-14T15:13:38;4.55;;;2.72;;